sensor_id;sensor_type;location;lat;lon;timestamp;P1;durP1;ratioP1;P2;durP2;ratioP2
7767;SDS011;3928;42.626;23.382;2022-12-29T00:00:07;23.70;;;17.50;;
7767;SDS011;3928;42.626;23.382;2022-12-29T00:02:36;24.40;;;17.10;;
7767;SDS011;3928;42.626;23.382;2022-12-29T00:05:03;26.53;;;17.10;;
7767;SDS011;3928;42.626;23.382;2022-12-29T00:07:32;24.77;;;16.47;;
7767;SDS011;3928;42.626;23.382;2022-12-29T00:09:58;23.83;;;16.83;;
7767;SDS011;3928;42.626;23.382;2022-12-29T00:12:25;29.60;;;18.43;;
7767;SDS011;3928;42.626;23.382;2022-12-29T00:15:12;25.47;;;17.23;;
7767;SDS011;3928;42.626;23.382;2022-12-29T00:17:57;26.57;;;17.80;;
7767;SDS011;3928;42.626;23.382;2022-12-29T00:20:23;25.00;;;17.27;;
7767;SDS011;3928;42.626;23.382;2022-12-29T00:23:09;29.17;;;18.87;;
7767;SDS011;3928;42.626;23.382;2022-12-29T00:25:53;26.73;;;18.30;;
7767;SDS011;3928;42.626;23.382;2022-12-29T00:28:37;25.17;;;16.27;;
7767;SDS011;3928;42.626;23.382;2022-12-29T00:31:21;24.53;;;17.80;;
7767;SDS011;3928;42.626;23.382;2022-12-29T00:34:07;25.10;;;17.13;;
7767;SDS011;3928;42.626;23.382;2022-12-29T00:36:54;29.40;;;18.67;;
7767;SDS011;3928;42.626;23.382;2022-12-29T00:39:22;29.37;;;19.13;;
7767;SDS011;3928;42.626;23.382;2022-12-29T00:42:07;28.80;;;18.93;;
7767;SDS011;3928;42.626;23.382;2022-12-29T00:44:57;24.70;;;17.40;;
7767;SDS011;3928;42.626;23.382;2022-12-29T00:47:24;28.47;;;18.33;;
7767;SDS011;3928;42.626;23.382;2022-12-29T00:49:51;27.87;;;18.40;;
7767;SDS011;3928;42.626;23.382;2022-12-29T00:52:17;25.63;;;17.13;;
7767;SDS011;3928;42.626;23.382;2022-12-29T00:54:45;27.80;;;19.20;;
7767;SDS011;3928;42.626;23.382;2022-12-29T00:57:13;24.23;;;18.03;;
7767;SDS011;3928;42.626;23.382;2022-12-29T00:59:41;29.13;;;18.40;;
7767;SDS011;3928;42.626;23.382;2022-12-29T01:02:08;26.00;;;17.97;;
7767;SDS011;3928;42.626;23.382;2022-12-29T01:04:35;27.63;;;18.07;;
7767;SDS011;3928;42.626;23.382;2022-12-29T01:07:03;25.47;;;18.07;;
7767;SDS011;3928;42.626;23.382;2022-12-29T01:09:30;26.83;;;18.13;;
7767;SDS011;3928;42.626;23.382;2022-12-29T01:12:16;26.60;;;18.27;;
7767;SDS011;3928;42.626;23.382;2022-12-29T01:15:04;27.77;;;17.97;;
7767;SDS011;3928;42.626;23.382;2022-12-29T01:17:31;24.83;;;18.20;;
7767;SDS011;3928;42.626;23.382;2022-12-29T01:19:58;25.77;;;17.27;;
7767;SDS011;3928;42.626;23.382;2022-12-29T01:22:25;26.33;;;17.97;;
7767;SDS011;3928;42.626;23.382;2022-12-29T01:24:51;25.13;;;17.43;;
7767;SDS011;3928;42.626;23.382;2022-12-29T01:27:19;25.10;;;17.23;;
7767;SDS011;3928;42.626;23.382;2022-12-29T01:29:46;24.43;;;17.13;;
7767;SDS011;3928;42.626;23.382;2022-12-29T01:32:13;28.23;;;19.30;;
7767;SDS011;3928;42.626;23.382;2022-12-29T01:34:40;33.07;;;22.00;;
7767;SDS011;3928;42.626;23.382;2022-12-29T01:37:06;31.57;;;21.57;;
7767;SDS011;3928;42.626;23.382;2022-12-29T01:39:33;28.77;;;20.60;;
7767;SDS011;3928;42.626;23.382;2022-12-29T01:42:00;27.97;;;19.37;;
7767;SDS011;3928;42.626;23.382;2022-12-29T01:50:08;32.70;;;21.47;;
7767;SDS011;3928;42.626;23.382;2022-12-29T01:52:39;28.60;;;19.13;;
7767;SDS011;3928;42.626;23.382;2022-12-29T01:55:07;34.00;;;22.93;;
7767;SDS011;3928;42.626;23.382;2022-12-29T01:57:38;35.47;;;22.57;;
7767;SDS011;3928;42.626;23.382;2022-12-29T02:00:12;33.57;;;23.20;;
7767;SDS011;3928;42.626;23.382;2022-12-29T02:02:40;33.90;;;22.20;;
7767;SDS011;3928;42.626;23.382;2022-12-29T02:05:11;36.23;;;23.93;;
7767;SDS011;3928;42.626;23.382;2022-12-29T02:07:42;37.37;;;25.03;;
7767;SDS011;3928;42.626;23.382;2022-12-29T02:10:11;38.70;;;25.10;;
7767;SDS011;3928;42.626;23.382;2022-12-29T02:12:38;41.93;;;27.00;;
7767;SDS011;3928;42.626;23.382;2022-12-29T02:15:06;42.17;;;27.70;;
7767;SDS011;3928;42.626;23.382;2022-12-29T02:17:41;38.47;;;26.67;;
7767;SDS011;3928;42.626;23.382;2022-12-29T02:23:15;39.60;;;26.80;;
7767;SDS011;3928;42.626;23.382;2022-12-29T02:26:14;39.73;;;27.23;;
7767;SDS011;3928;42.626;23.382;2022-12-29T02:32:04;42.23;;;27.20;;
7767;SDS011;3928;42.626;23.382;2022-12-29T02:34:37;38.77;;;26.20;;
7767;SDS011;3928;42.626;23.382;2022-12-29T02:37:17;36.30;;;24.03;;
7767;SDS011;3928;42.626;23.382;2022-12-29T02:39:50;36.60;;;24.57;;
7767;SDS011;3928;42.626;23.382;2022-12-29T02:42:24;30.33;;;21.37;;
7767;SDS011;3928;42.626;23.382;2022-12-29T02:45:01;34.43;;;21.83;;
7767;SDS011;3928;42.626;23.382;2022-12-29T02:47:35;32.03;;;19.63;;
7767;SDS011;3928;42.626;23.382;2022-12-29T02:50:06;27.77;;;18.70;;
7767;SDS011;3928;42.626;23.382;2022-12-29T02:52:40;27.40;;;18.07;;
7767;SDS011;3928;42.626;23.382;2022-12-29T02:55:12;24.10;;;16.50;;
7767;SDS011;3928;42.626;23.382;2022-12-29T02:57:38;22.63;;;16.67;;
7767;SDS011;3928;42.626;23.382;2022-12-29T03:00:06;25.43;;;16.93;;
7767;SDS011;3928;42.626;23.382;2022-12-29T03:02:49;23.67;;;16.37;;
7767;SDS011;3928;42.626;23.382;2022-12-29T03:05:37;19.77;;;15.13;;
7767;SDS011;3928;42.626;23.382;2022-12-29T03:08:17;24.63;;;16.60;;
7767;SDS011;3928;42.626;23.382;2022-12-29T03:10:53;23.87;;;16.87;;
7767;SDS011;3928;42.626;23.382;2022-12-29T03:13:26;26.30;;;16.87;;
7767;SDS011;3928;42.626;23.382;2022-12-29T03:16:20;26.33;;;18.23;;
7767;SDS011;3928;42.626;23.382;2022-12-29T03:18:57;28.13;;;17.80;;
7767;SDS011;3928;42.626;23.382;2022-12-29T03:21:31;23.47;;;16.03;;
7767;SDS011;3928;42.626;23.382;2022-12-29T03:24:18;27.53;;;19.70;;
7767;SDS011;3928;42.626;23.382;2022-12-29T03:26:49;26.70;;;18.30;;
7767;SDS011;3928;42.626;23.382;2022-12-29T03:29:19;34.03;;;21.60;;
7767;SDS011;3928;42.626;23.382;2022-12-29T03:31:47;31.60;;;21.20;;
7767;SDS011;3928;42.626;23.382;2022-12-29T03:34:17;29.90;;;21.57;;
7767;SDS011;3928;42.626;23.382;2022-12-29T03:36:48;33.00;;;21.50;;
7767;SDS011;3928;42.626;23.382;2022-12-29T03:39:20;29.33;;;19.97;;
7767;SDS011;3928;42.626;23.382;2022-12-29T03:41:49;32.13;;;21.93;;
7767;SDS011;3928;42.626;23.382;2022-12-29T03:44:21;30.73;;;20.30;;
7767;SDS011;3928;42.626;23.382;2022-12-29T03:46:58;27.37;;;18.97;;
7767;SDS011;3928;42.626;23.382;2022-12-29T03:49:26;26.47;;;18.83;;
7767;SDS011;3928;42.626;23.382;2022-12-29T03:51:53;26.17;;;17.60;;
7767;SDS011;3928;42.626;23.382;2022-12-29T03:54:20;25.20;;;16.67;;
7767;SDS011;3928;42.626;23.382;2022-12-29T03:56:46;22.77;;;15.57;;
7767;SDS011;3928;42.626;23.382;2022-12-29T03:59:13;24.90;;;18.70;;
7767;SDS011;3928;42.626;23.382;2022-12-29T04:01:40;31.80;;;20.70;;
7767;SDS011;3928;42.626;23.382;2022-12-29T04:04:07;34.83;;;21.67;;
7767;SDS011;3928;42.626;23.382;2022-12-29T04:06:35;30.77;;;20.60;;
7767;SDS011;3928;42.626;23.382;2022-12-29T04:09:02;30.20;;;20.63;;
7767;SDS011;3928;42.626;23.382;2022-12-29T04:11:29;31.80;;;20.80;;
7767;SDS011;3928;42.626;23.382;2022-12-29T04:13:56;29.27;;;20.27;;
7767;SDS011;3928;42.626;23.382;2022-12-29T04:16:22;31.63;;;20.13;;
7767;SDS011;3928;42.626;23.382;2022-12-29T04:18:49;27.50;;;19.37;;
7767;SDS011;3928;42.626;23.382;2022-12-29T04:21:16;29.37;;;20.27;;
7767;SDS011;3928;42.626;23.382;2022-12-29T04:23:44;33.37;;;20.93;;
7767;SDS011;3928;42.626;23.382;2022-12-29T04:26:12;30.30;;;19.70;;
7767;SDS011;3928;42.626;23.382;2022-12-29T04:28:39;32.27;;;20.93;;
7767;SDS011;3928;42.626;23.382;2022-12-29T04:31:06;30.90;;;20.30;;
7767;SDS011;3928;42.626;23.382;2022-12-29T04:33:33;28.67;;;21.13;;
7767;SDS011;3928;42.626;23.382;2022-12-29T04:35:59;33.53;;;22.00;;
7767;SDS011;3928;42.626;23.382;2022-12-29T04:38:26;32.27;;;20.83;;
7767;SDS011;3928;42.626;23.382;2022-12-29T04:40:54;31.47;;;20.67;;
7767;SDS011;3928;42.626;23.382;2022-12-29T04:43:21;35.00;;;22.53;;
7767;SDS011;3928;42.626;23.382;2022-12-29T04:45:48;34.03;;;21.97;;
7767;SDS011;3928;42.626;23.382;2022-12-29T04:48:15;29.97;;;20.30;;
7767;SDS011;3928;42.626;23.382;2022-12-29T04:50:42;31.27;;;21.37;;
7767;SDS011;3928;42.626;23.382;2022-12-29T04:53:09;32.30;;;20.10;;
7767;SDS011;3928;42.626;23.382;2022-12-29T04:55:36;29.40;;;18.47;;
7767;SDS011;3928;42.626;23.382;2022-12-29T04:58:04;24.90;;;17.00;;
7767;SDS011;3928;42.626;23.382;2022-12-29T05:00:31;23.07;;;16.77;;
7767;SDS011;3928;42.626;23.382;2022-12-29T05:02:58;29.20;;;16.93;;
7767;SDS011;3928;42.626;23.382;2022-12-29T05:05:25;26.27;;;16.50;;
7767;SDS011;3928;42.626;23.382;2022-12-29T05:07:52;33.73;;;16.23;;
7767;SDS011;3928;42.626;23.382;2022-12-29T05:10:19;25.40;;;16.60;;
7767;SDS011;3928;42.626;23.382;2022-12-29T05:12:45;24.23;;;17.27;;
7767;SDS011;3928;42.626;23.382;2022-12-29T05:15:13;27.43;;;18.07;;
7767;SDS011;3928;42.626;23.382;2022-12-29T05:17:40;25.10;;;17.60;;
7767;SDS011;3928;42.626;23.382;2022-12-29T05:20:07;27.17;;;17.97;;
7767;SDS011;3928;42.626;23.382;2022-12-29T05:22:35;27.00;;;17.87;;
7767;SDS011;3928;42.626;23.382;2022-12-29T05:25:02;24.43;;;17.70;;
7767;SDS011;3928;42.626;23.382;2022-12-29T05:27:29;32.70;;;19.43;;
7767;SDS011;3928;42.626;23.382;2022-12-29T05:29:55;26.90;;;18.77;;
7767;SDS011;3928;42.626;23.382;2022-12-29T05:32:24;28.00;;;19.40;;
7767;SDS011;3928;42.626;23.382;2022-12-29T05:34:50;33.57;;;21.80;;
7767;SDS011;3928;42.626;23.382;2022-12-29T05:37:17;34.60;;;23.23;;
7767;SDS011;3928;42.626;23.382;2022-12-29T05:39:44;35.03;;;22.97;;
7767;SDS011;3928;42.626;23.382;2022-12-29T05:42:11;30.10;;;21.80;;
7767;SDS011;3928;42.626;23.382;2022-12-29T05:44:37;35.00;;;23.40;;
7767;SDS011;3928;42.626;23.382;2022-12-29T05:47:04;30.53;;;20.63;;
7767;SDS011;3928;42.626;23.382;2022-12-29T05:49:33;33.63;;;20.90;;
7767;SDS011;3928;42.626;23.382;2022-12-29T05:51:59;35.17;;;25.13;;
7767;SDS011;3928;42.626;23.382;2022-12-29T05:54:26;36.67;;;23.90;;
7767;SDS011;3928;42.626;23.382;2022-12-29T05:56:53;41.93;;;26.83;;
7767;SDS011;3928;42.626;23.382;2022-12-29T05:59:20;39.27;;;27.03;;
7767;SDS011;3928;42.626;23.382;2022-12-29T06:01:47;38.43;;;26.33;;
7767;SDS011;3928;42.626;23.382;2022-12-29T06:04:14;41.23;;;25.53;;
7767;SDS011;3928;42.626;23.382;2022-12-29T06:06:42;37.70;;;25.70;;
7767;SDS011;3928;42.626;23.382;2022-12-29T06:09:09;35.87;;;24.37;;
7767;SDS011;3928;42.626;23.382;2022-12-29T06:11:36;36.90;;;25.17;;
7767;SDS011;3928;42.626;23.382;2022-12-29T06:14:03;40.13;;;24.67;;
7767;SDS011;3928;42.626;23.382;2022-12-29T06:16:30;35.37;;;24.30;;
7767;SDS011;3928;42.626;23.382;2022-12-29T06:18:57;31.93;;;23.23;;
7767;SDS011;3928;42.626;23.382;2022-12-29T06:21:23;32.17;;;22.40;;
7767;SDS011;3928;42.626;23.382;2022-12-29T06:23:52;33.67;;;22.07;;
7767;SDS011;3928;42.626;23.382;2022-12-29T06:26:18;35.33;;;24.37;;
7767;SDS011;3928;42.626;23.382;2022-12-29T06:28:45;41.80;;;26.50;;
7767;SDS011;3928;42.626;23.382;2022-12-29T06:31:12;47.50;;;28.33;;
7767;SDS011;3928;42.626;23.382;2022-12-29T06:33:39;45.10;;;28.27;;
7767;SDS011;3928;42.626;23.382;2022-12-29T06:36:06;38.00;;;27.50;;
7767;SDS011;3928;42.626;23.382;2022-12-29T06:38:33;39.67;;;26.40;;
7767;SDS011;3928;42.626;23.382;2022-12-29T06:41:02;32.00;;;21.23;;
7767;SDS011;3928;42.626;23.382;2022-12-29T06:43:28;26.80;;;18.77;;
7767;SDS011;3928;42.626;23.382;2022-12-29T06:45:57;29.53;;;19.50;;
7767;SDS011;3928;42.626;23.382;2022-12-29T06:48:24;29.10;;;19.83;;
7767;SDS011;3928;42.626;23.382;2022-12-29T06:50:50;29.43;;;20.27;;
7767;SDS011;3928;42.626;23.382;2022-12-29T06:53:17;29.10;;;19.63;;
7767;SDS011;3928;42.626;23.382;2022-12-29T06:55:44;31.50;;;21.23;;
7767;SDS011;3928;42.626;23.382;2022-12-29T06:58:12;31.27;;;20.77;;
7767;SDS011;3928;42.626;23.382;2022-12-29T07:00:39;32.47;;;20.53;;
7767;SDS011;3928;42.626;23.382;2022-12-29T07:03:06;28.13;;;20.33;;
7767;SDS011;3928;42.626;23.382;2022-12-29T07:05:33;24.40;;;17.37;;
7767;SDS011;3928;42.626;23.382;2022-12-29T07:07:59;26.40;;;18.87;;
7767;SDS011;3928;42.626;23.382;2022-12-29T07:10:26;27.63;;;19.20;;
7767;SDS011;3928;42.626;23.382;2022-12-29T07:12:53;25.17;;;18.37;;
7767;SDS011;3928;42.626;23.382;2022-12-29T07:15:21;27.47;;;17.87;;
7767;SDS011;3928;42.626;23.382;2022-12-29T07:17:48;26.50;;;18.00;;
7767;SDS011;3928;42.626;23.382;2022-12-29T07:20:15;27.77;;;19.13;;
7767;SDS011;3928;42.626;23.382;2022-12-29T07:22:42;26.03;;;18.50;;
7767;SDS011;3928;42.626;23.382;2022-12-29T07:25:09;28.47;;;20.10;;
7767;SDS011;3928;42.626;23.382;2022-12-29T07:27:36;29.23;;;21.57;;
7767;SDS011;3928;42.626;23.382;2022-12-29T07:30:03;30.23;;;21.63;;
7767;SDS011;3928;42.626;23.382;2022-12-29T07:32:33;35.43;;;23.90;;
7767;SDS011;3928;42.626;23.382;2022-12-29T07:35:00;37.43;;;24.37;;
7767;SDS011;3928;42.626;23.382;2022-12-29T07:37:27;28.27;;;20.67;;
7767;SDS011;3928;42.626;23.382;2022-12-29T07:39:54;31.47;;;22.80;;
7767;SDS011;3928;42.626;23.382;2022-12-29T07:42:21;32.83;;;21.43;;
7767;SDS011;3928;42.626;23.382;2022-12-29T07:44:48;31.70;;;20.67;;
7767;SDS011;3928;42.626;23.382;2022-12-29T07:47:14;30.30;;;20.97;;
7767;SDS011;3928;42.626;23.382;2022-12-29T07:49:43;30.63;;;20.60;;
7767;SDS011;3928;42.626;23.382;2022-12-29T07:52:09;30.33;;;20.37;;
7767;SDS011;3928;42.626;23.382;2022-12-29T07:54:36;32.50;;;20.50;;
7767;SDS011;3928;42.626;23.382;2022-12-29T07:57:03;27.93;;;20.10;;
7767;SDS011;3928;42.626;23.382;2022-12-29T07:59:30;35.73;;;21.20;;
7767;SDS011;3928;42.626;23.382;2022-12-29T08:01:58;35.13;;;20.70;;
7767;SDS011;3928;42.626;23.382;2022-12-29T08:04:24;32.43;;;20.23;;
7767;SDS011;3928;42.626;23.382;2022-12-29T08:06:52;30.47;;;20.63;;
7767;SDS011;3928;42.626;23.382;2022-12-29T08:09:19;29.73;;;19.37;;
7767;SDS011;3928;42.626;23.382;2022-12-29T08:11:46;26.20;;;17.73;;
7767;SDS011;3928;42.626;23.382;2022-12-29T08:14:13;23.97;;;16.87;;
7767;SDS011;3928;42.626;23.382;2022-12-29T08:16:40;30.67;;;18.27;;
7767;SDS011;3928;42.626;23.382;2022-12-29T08:19:06;27.77;;;19.03;;
7767;SDS011;3928;42.626;23.382;2022-12-29T08:21:33;29.50;;;18.43;;
7767;SDS011;3928;42.626;23.382;2022-12-29T08:24:01;27.33;;;19.20;;
7767;SDS011;3928;42.626;23.382;2022-12-29T08:26:28;31.07;;;19.83;;
7767;SDS011;3928;42.626;23.382;2022-12-29T08:28:55;31.07;;;20.77;;
7767;SDS011;3928;42.626;23.382;2022-12-29T08:31:22;33.40;;;22.20;;
7767;SDS011;3928;42.626;23.382;2022-12-29T08:33:49;30.43;;;20.87;;
7767;SDS011;3928;42.626;23.382;2022-12-29T08:36:16;29.63;;;19.90;;
7767;SDS011;3928;42.626;23.382;2022-12-29T08:38:43;33.53;;;22.50;;
7767;SDS011;3928;42.626;23.382;2022-12-29T08:41:11;36.57;;;24.23;;
7767;SDS011;3928;42.626;23.382;2022-12-29T08:43:38;32.67;;;22.77;;
7767;SDS011;3928;42.626;23.382;2022-12-29T08:46:04;35.27;;;24.10;;
7767;SDS011;3928;42.626;23.382;2022-12-29T08:48:31;36.13;;;25.33;;
7767;SDS011;3928;42.626;23.382;2022-12-29T08:50:58;30.23;;;21.13;;
7767;SDS011;3928;42.626;23.382;2022-12-29T08:53:25;29.60;;;20.30;;
7767;SDS011;3928;42.626;23.382;2022-12-29T08:55:55;29.87;;;21.63;;
7767;SDS011;3928;42.626;23.382;2022-12-29T08:58:25;31.17;;;21.33;;
7767;SDS011;3928;42.626;23.382;2022-12-29T09:00:54;30.17;;;20.73;;
7767;SDS011;3928;42.626;23.382;2022-12-29T09:03:22;32.17;;;22.20;;
7767;SDS011;3928;42.626;23.382;2022-12-29T09:05:49;31.17;;;21.00;;
7767;SDS011;3928;42.626;23.382;2022-12-29T09:08:16;30.57;;;20.57;;
7767;SDS011;3928;42.626;23.382;2022-12-29T09:10:43;26.93;;;19.70;;
7767;SDS011;3928;42.626;23.382;2022-12-29T09:13:11;30.57;;;20.67;;
7767;SDS011;3928;42.626;23.382;2022-12-29T09:15:39;35.97;;;23.67;;
7767;SDS011;3928;42.626;23.382;2022-12-29T09:18:06;34.47;;;24.03;;
7767;SDS011;3928;42.626;23.382;2022-12-29T09:20:34;37.93;;;24.03;;
7767;SDS011;3928;42.626;23.382;2022-12-29T09:23:02;37.10;;;22.10;;
7767;SDS011;3928;42.626;23.382;2022-12-29T09:25:31;31.00;;;24.13;;
7767;SDS011;3928;42.626;23.382;2022-12-29T09:27:57;35.60;;;25.90;;
7767;SDS011;3928;42.626;23.382;2022-12-29T09:30:29;39.13;;;28.47;;
7767;SDS011;3928;42.626;23.382;2022-12-29T09:32:57;46.47;;;28.70;;
7767;SDS011;3928;42.626;23.382;2022-12-29T09:35:24;38.80;;;28.63;;
7767;SDS011;3928;42.626;23.382;2022-12-29T09:37:50;37.73;;;25.63;;
7767;SDS011;3928;42.626;23.382;2022-12-29T09:40:22;49.03;;;28.47;;
7767;SDS011;3928;42.626;23.382;2022-12-29T09:42:59;42.57;;;28.23;;
7767;SDS011;3928;42.626;23.382;2022-12-29T09:45:40;39.57;;;27.53;;
7767;SDS011;3928;42.626;23.382;2022-12-29T09:48:13;37.70;;;25.17;;
7767;SDS011;3928;42.626;23.382;2022-12-29T09:50:46;40.10;;;24.23;;
7767;SDS011;3928;42.626;23.382;2022-12-29T09:53:19;35.13;;;24.83;;
7767;SDS011;3928;42.626;23.382;2022-12-29T09:55:51;36.83;;;25.27;;
7767;SDS011;3928;42.626;23.382;2022-12-29T09:58:24;37.40;;;26.87;;
7767;SDS011;3928;42.626;23.382;2022-12-29T10:00:56;35.03;;;25.60;;
7767;SDS011;3928;42.626;23.382;2022-12-29T10:03:32;48.30;;;27.27;;
7767;SDS011;3928;42.626;23.382;2022-12-29T10:06:11;38.93;;;27.37;;
7767;SDS011;3928;42.626;23.382;2022-12-29T10:08:42;42.77;;;27.37;;
7767;SDS011;3928;42.626;23.382;2022-12-29T10:11:19;39.97;;;27.67;;
7767;SDS011;3928;42.626;23.382;2022-12-29T10:14:02;40.13;;;28.33;;
7767;SDS011;3928;42.626;23.382;2022-12-29T10:16:45;38.33;;;26.77;;
7767;SDS011;3928;42.626;23.382;2022-12-29T10:19:31;40.83;;;27.77;;
7767;SDS011;3928;42.626;23.382;2022-12-29T10:22:09;42.07;;;26.87;;
7767;SDS011;3928;42.626;23.382;2022-12-29T10:24:45;36.43;;;27.17;;
7767;SDS011;3928;42.626;23.382;2022-12-29T10:27:15;42.50;;;28.33;;
7767;SDS011;3928;42.626;23.382;2022-12-29T10:29:43;40.40;;;27.83;;
7767;SDS011;3928;42.626;23.382;2022-12-29T10:32:16;34.90;;;27.20;;
7767;SDS011;3928;42.626;23.382;2022-12-29T10:34:53;39.77;;;28.37;;
7767;SDS011;3928;42.626;23.382;2022-12-29T10:37:27;40.20;;;28.50;;
7767;SDS011;3928;42.626;23.382;2022-12-29T10:39:58;44.40;;;29.53;;
7767;SDS011;3928;42.626;23.382;2022-12-29T10:42:34;39.00;;;27.23;;
7767;SDS011;3928;42.626;23.382;2022-12-29T10:45:07;39.07;;;28.57;;
7767;SDS011;3928;42.626;23.382;2022-12-29T10:47:42;35.53;;;26.03;;
7767;SDS011;3928;42.626;23.382;2022-12-29T10:50:19;36.43;;;26.33;;
7767;SDS011;3928;42.626;23.382;2022-12-29T10:52:46;37.40;;;25.90;;
7767;SDS011;3928;42.626;23.382;2022-12-29T10:55:15;40.03;;;25.33;;
7767;SDS011;3928;42.626;23.382;2022-12-29T10:57:45;35.60;;;25.30;;
7767;SDS011;3928;42.626;23.382;2022-12-29T11:00:15;34.60;;;24.92;;
7767;SDS011;3928;42.626;23.382;2022-12-29T11:02:59;32.60;;;25.77;;
7767;SDS011;3928;42.626;23.382;2022-12-29T11:05:40;39.78;;;26.42;;
7767;SDS011;3928;42.626;23.382;2022-12-29T11:08:14;36.53;;;25.58;;
7767;SDS011;3928;42.626;23.382;2022-12-29T11:10:43;33.35;;;26.02;;
7767;SDS011;3928;42.626;23.382;2022-12-29T11:13:12;36.97;;;26.63;;
7767;SDS011;3928;42.626;23.382;2022-12-29T11:15:41;41.75;;;27.05;;
7767;SDS011;3928;42.626;23.382;2022-12-29T11:18:20;33.47;;;23.88;;
7767;SDS011;3928;42.626;23.382;2022-12-29T11:20:50;35.67;;;25.38;;
7767;SDS011;3928;42.626;23.382;2022-12-29T11:23:24;41.65;;;27.50;;
7767;SDS011;3928;42.626;23.382;2022-12-29T11:26:05;34.78;;;26.27;;
7767;SDS011;3928;42.626;23.382;2022-12-29T11:28:43;30.63;;;24.50;;
7767;SDS011;3928;42.626;23.382;2022-12-29T11:31:15;31.15;;;24.60;;
7767;SDS011;3928;42.626;23.382;2022-12-29T11:33:42;31.90;;;24.75;;
7767;SDS011;3928;42.626;23.382;2022-12-29T11:36:12;39.65;;;24.52;;
7767;SDS011;3928;42.626;23.382;2022-12-29T11:38:42;35.33;;;25.25;;
7767;SDS011;3928;42.626;23.382;2022-12-29T11:41:13;33.20;;;24.35;;
7767;SDS011;3928;42.626;23.382;2022-12-29T11:43:47;30.90;;;23.67;;
7767;SDS011;3928;42.626;23.382;2022-12-29T11:46:14;37.83;;;24.60;;
7767;SDS011;3928;42.626;23.382;2022-12-29T11:48:45;30.10;;;23.13;;
7767;SDS011;3928;42.626;23.382;2022-12-29T11:51:14;30.48;;;22.80;;
7767;SDS011;3928;42.626;23.382;2022-12-29T11:53:49;34.70;;;26.10;;
7767;SDS011;3928;42.626;23.382;2022-12-29T11:56:20;32.15;;;24.83;;
7767;SDS011;3928;42.626;23.382;2022-12-29T11:58:56;31.95;;;23.95;;
7767;SDS011;3928;42.626;23.382;2022-12-29T12:01:25;31.17;;;22.65;;
7767;SDS011;3928;42.626;23.382;2022-12-29T12:04:01;27.10;;;21.67;;
7767;SDS011;3928;42.626;23.382;2022-12-29T12:06:32;27.10;;;22.05;;
7767;SDS011;3928;42.626;23.382;2022-12-29T12:09:05;26.42;;;21.58;;
7767;SDS011;3928;42.626;23.382;2022-12-29T12:11:40;27.05;;;22.65;;
7767;SDS011;3928;42.626;23.382;2022-12-29T12:14:11;31.25;;;23.77;;
7767;SDS011;3928;42.626;23.382;2022-12-29T12:16:45;31.30;;;22.67;;
7767;SDS011;3928;42.626;23.382;2022-12-29T12:19:19;32.03;;;23.08;;
7767;SDS011;3928;42.626;23.382;2022-12-29T12:21:53;30.17;;;23.30;;
7767;SDS011;3928;42.626;23.382;2022-12-29T12:24:34;28.90;;;23.17;;
7767;SDS011;3928;42.626;23.382;2022-12-29T12:27:10;28.48;;;22.65;;
7767;SDS011;3928;42.626;23.382;2022-12-29T12:29:43;30.70;;;24.63;;
7767;SDS011;3928;42.626;23.382;2022-12-29T12:32:17;29.00;;;23.33;;
7767;SDS011;3928;42.626;23.382;2022-12-29T12:34:48;32.80;;;24.33;;
7767;SDS011;3928;42.626;23.382;2022-12-29T12:37:23;30.17;;;23.92;;
7767;SDS011;3928;42.626;23.382;2022-12-29T12:40:05;33.38;;;24.00;;
7767;SDS011;3928;42.626;23.382;2022-12-29T12:42:49;31.30;;;25.10;;
7767;SDS011;3928;42.626;23.382;2022-12-29T12:45:27;31.27;;;25.25;;
7767;SDS011;3928;42.626;23.382;2022-12-29T12:48:08;31.17;;;22.67;;
7767;SDS011;3928;42.626;23.382;2022-12-29T12:50:52;31.90;;;25.38;;
7767;SDS011;3928;42.626;23.382;2022-12-29T12:53:36;33.20;;;25.23;;
7767;SDS011;3928;42.626;23.382;2022-12-29T12:59:16;30.30;;;23.23;;
7767;SDS011;3928;42.626;23.382;2022-12-29T13:01:54;34.35;;;23.67;;
7767;SDS011;3928;42.626;23.382;2022-12-29T13:04:33;33.47;;;25.17;;
7767;SDS011;3928;42.626;23.382;2022-12-29T13:07:19;31.80;;;24.75;;
7767;SDS011;3928;42.626;23.382;2022-12-29T13:09:59;33.72;;;25.33;;
7767;SDS011;3928;42.626;23.382;2022-12-29T13:12:40;28.73;;;24.48;;
7767;SDS011;3928;42.626;23.382;2022-12-29T13:15:18;32.92;;;25.08;;
7767;SDS011;3928;42.626;23.382;2022-12-29T13:17:56;28.73;;;23.02;;
7767;SDS011;3928;42.626;23.382;2022-12-29T13:20:33;32.28;;;22.80;;
7767;SDS011;3928;42.626;23.382;2022-12-29T13:23:08;28.20;;;21.58;;
7767;SDS011;3928;42.626;23.382;2022-12-29T13:25:47;27.52;;;22.63;;
7767;SDS011;3928;42.626;23.382;2022-12-29T13:28:19;32.15;;;22.60;;
7767;SDS011;3928;42.626;23.382;2022-12-29T13:30:53;28.65;;;22.52;;
7767;SDS011;3928;42.626;23.382;2022-12-29T13:33:28;33.22;;;24.85;;
7767;SDS011;3928;42.626;23.382;2022-12-29T13:36:09;31.13;;;23.50;;
7767;SDS011;3928;42.626;23.382;2022-12-29T13:38:42;32.63;;;22.77;;
7767;SDS011;3928;42.626;23.382;2022-12-29T13:41:16;27.45;;;22.58;;
7767;SDS011;3928;42.626;23.382;2022-12-29T13:43:53;30.98;;;22.67;;
7767;SDS011;3928;42.626;23.382;2022-12-29T13:46:23;30.13;;;23.63;;
7767;SDS011;3928;42.626;23.382;2022-12-29T13:48:54;30.98;;;22.92;;
7767;SDS011;3928;42.626;23.382;2022-12-29T13:51:25;25.23;;;21.38;;
7767;SDS011;3928;42.626;23.382;2022-12-29T13:53:56;32.63;;;22.08;;
7767;SDS011;3928;42.626;23.382;2022-12-29T13:56:34;30.10;;;21.05;;
7767;SDS011;3928;42.626;23.382;2022-12-29T13:59:08;28.85;;;21.70;;
7767;SDS011;3928;42.626;23.382;2022-12-29T14:01:43;26.35;;;20.77;;
7767;SDS011;3928;42.626;23.382;2022-12-29T14:04:21;26.52;;;20.33;;
7767;SDS011;3928;42.626;23.382;2022-12-29T14:06:58;30.88;;;20.10;;
7767;SDS011;3928;42.626;23.382;2022-12-29T14:09:38;26.35;;;20.55;;
7767;SDS011;3928;42.626;23.382;2022-12-29T14:12:25;27.63;;;20.85;;
7767;SDS011;3928;42.626;23.382;2022-12-29T14:15:04;28.50;;;22.15;;
7767;SDS011;3928;42.626;23.382;2022-12-29T14:17:33;30.95;;;20.88;;
7767;SDS011;3928;42.626;23.382;2022-12-29T14:20:00;32.45;;;22.10;;
7767;SDS011;3928;42.626;23.382;2022-12-29T14:22:28;30.77;;;22.23;;
7767;SDS011;3928;42.626;23.382;2022-12-29T14:24:55;29.33;;;21.73;;
7767;SDS011;3928;42.626;23.382;2022-12-29T14:33:13;33.92;;;23.05;;
7767;SDS011;3928;42.626;23.382;2022-12-29T14:35:41;33.25;;;22.90;;
7767;SDS011;3928;42.626;23.382;2022-12-29T14:38:21;38.67;;;24.45;;
7767;SDS011;3928;42.626;23.382;2022-12-29T14:40:50;36.03;;;24.17;;
7767;SDS011;3928;42.626;23.382;2022-12-29T14:43:20;37.33;;;23.50;;
7767;SDS011;3928;42.626;23.382;2022-12-29T14:45:55;42.55;;;27.40;;
7767;SDS011;3928;42.626;23.382;2022-12-29T14:48:30;48.15;;;31.83;;
7767;SDS011;3928;42.626;23.382;2022-12-29T14:51:01;57.60;;;32.78;;
7767;SDS011;3928;42.626;23.382;2022-12-29T14:53:42;59.10;;;33.38;;
7767;SDS011;3928;42.626;23.382;2022-12-29T14:56:11;52.42;;;34.25;;
7767;SDS011;3928;42.626;23.382;2022-12-29T14:58:43;51.27;;;30.83;;
7767;SDS011;3928;42.626;23.382;2022-12-29T15:01:17;56.07;;;34.67;;
7767;SDS011;3928;42.626;23.382;2022-12-29T15:04:13;52.37;;;30.53;;
7767;SDS011;3928;42.626;23.382;2022-12-29T15:06:43;49.50;;;30.60;;
7767;SDS011;3928;42.626;23.382;2022-12-29T15:09:12;48.70;;;29.50;;
7767;SDS011;3928;42.626;23.382;2022-12-29T15:11:51;45.57;;;29.13;;
7767;SDS011;3928;42.626;23.382;2022-12-29T15:14:32;49.70;;;29.27;;
7767;SDS011;3928;42.626;23.382;2022-12-29T15:17:00;51.73;;;29.43;;